createdAt,value
2023-05-01T00:02:18.802Z,6.70
2023-05-01T00:05:06.311Z,7.18
2023-05-01T00:07:38.567Z,7.30
2023-05-01T00:10:09.704Z,9.13
2023-05-01T00:12:41.447Z,11.43
2023-05-01T00:15:11.620Z,9.30
2023-05-01T00:17:47.360Z,7.40
2023-05-01T00:20:22.870Z,7.20
2023-05-01T00:22:52.910Z,8.82
2023-05-01T00:25:22.847Z,11.38
2023-05-01T00:28:01.391Z,7.50
2023-05-01T00:30:42.001Z,6.85
2023-05-01T00:33:29.357Z,6.70
2023-05-01T00:35:59.234Z,6.88
2023-05-01T00:38:29.404Z,8.02
2023-05-01T00:41:04.930Z,11.27
2023-05-01T00:43:44.156Z,6.95
2023-05-01T00:46:30.952Z,6.68
2023-05-01T00:49:01.340Z,7.95
2023-05-01T00:51:35.684Z,10.35
2023-05-01T00:54:26.717Z,7.32
2023-05-01T00:56:59.858Z,12.15
2023-05-01T00:59:34.043Z,7.05
2023-05-01T01:02:08.969Z,16.10
2023-05-01T01:04:45.469Z,12.07
2023-05-01T01:07:31.943Z,9.07
2023-05-01T01:10:26.448Z,9.07
2023-05-01T01:13:18.700Z,6.60
2023-05-01T01:19:08.821Z,6.30
2023-05-01T01:21:38.939Z,6.85
2023-05-01T01:24:23.097Z,6.63
2023-05-01T01:26:51.312Z,6.78
2023-05-01T01:29:33.863Z,6.88
2023-05-01T01:32:11.974Z,6.45
2023-05-01T01:34:50.773Z,6.43
2023-05-01T01:37:27.290Z,6.78
2023-05-01T01:40:04.452Z,6.85
2023-05-01T01:42:51.634Z,8.40
2023-05-01T01:45:23.830Z,6.43
2023-05-01T01:47:54.628Z,6.20
2023-05-01T01:50:30.749Z,6.68
2023-05-01T01:53:05.154Z,7.32
2023-05-01T01:56:06.878Z,8.30
2023-05-01T01:58:43.557Z,7.68
2023-05-01T02:01:22.939Z,7.95
2023-05-01T02:04:29.008Z,10.52
2023-05-01T02:06:58.185Z,7.70
2023-05-01T02:09:33.085Z,8.90
2023-05-01T02:12:06.055Z,8.30
2023-05-01T02:14:39.160Z,7.38
2023-05-01T02:17:12.817Z,8.40
2023-05-01T02:22:14.698Z,8.27
2023-05-01T02:24:53.764Z,11.25
2023-05-01T02:27:50.845Z,8.73
2023-05-01T02:30:18.859Z,9.00
2023-05-01T02:33:13.656Z,8.52
2023-05-01T02:36:05.115Z,8.68
2023-05-01T02:38:45.433Z,10.85
2023-05-01T02:41:15.832Z,8.23
2023-05-01T02:43:46.963Z,12.93
2023-05-01T02:46:17.768Z,8.25
2023-05-01T02:48:51.870Z,7.40
2023-05-01T02:51:34.607Z,7.55
2023-05-01T02:54:11.394Z,6.32
2023-05-01T02:56:48.250Z,7.07
2023-05-01T02:59:21.858Z,6.60
2023-05-01T03:01:51.492Z,7.78
2023-05-01T03:04:24.185Z,8.70
2023-05-01T03:07:00.202Z,7.25
2023-05-01T03:09:39.515Z,5.68
2023-05-01T03:12:12.650Z,8.77
2023-05-01T03:14:50.911Z,10.25
2023-05-01T03:17:25.068Z,6.28
2023-05-01T03:19:56.307Z,6.75
2023-05-01T03:25:05.023Z,6.32
2023-05-01T03:27:36.311Z,6.22
2023-05-01T03:30:06.392Z,6.78
2023-05-01T03:32:40.574Z,7.90
2023-05-01T03:35:23.540Z,6.75
2023-05-01T03:37:59.155Z,7.55
2023-05-01T03:40:52.166Z,7.25
2023-05-01T03:43:55.534Z,6.13
2023-05-01T03:46:44.212Z,5.88
2023-05-01T03:49:25.577Z,8.10
2023-05-01T03:51:59.140Z,7.75
2023-05-01T03:54:41.683Z,8.20
2023-05-01T03:57:37.900Z,7.55
2023-05-01T04:03:02.040Z,6.95
2023-05-01T04:05:36.548Z,6.78
2023-05-01T04:08:10.558Z,7.97
2023-05-01T04:10:46.098Z,7.15
2023-05-01T04:13:21.965Z,7.72
2023-05-01T04:15:54.599Z,10.98
2023-05-01T04:21:45.928Z,6.95
2023-05-01T04:26:48.914Z,6.93
2023-05-01T04:29:29.296Z,7.93
2023-05-01T04:31:57.927Z,6.70
2023-05-01T04:34:46.359Z,7.03
2023-05-01T04:37:24.087Z,8.88
2023-05-01T04:39:51.238Z,6.75
2023-05-01T04:42:28.064Z,11.00
2023-05-01T04:44:58.220Z,8.55
2023-05-01T04:47:31.772Z,6.93
2023-05-01T04:52:29.634Z,6.93
2023-05-01T04:55:13.228Z,6.70
2023-05-01T04:58:06.968Z,7.10
2023-05-01T05:00:36.612Z,6.38
2023-05-01T05:03:14.798Z,7.15
2023-05-01T05:06:02.189Z,6.82
2023-05-01T05:11:28.236Z,6.55
2023-05-01T05:14:10.524Z,8.77
2023-05-01T05:16:53.692Z,9.05
2023-05-01T05:19:31.427Z,5.95
2023-05-01T05:22:01.567Z,6.88
2023-05-01T05:24:35.714Z,7.00
2023-05-01T05:27:11.591Z,6.28
2023-05-01T05:29:39.030Z,14.70
2023-05-01T05:32:09.386Z,6.50
2023-05-01T05:37:28.287Z,7.22
2023-05-01T05:40:04.188Z,6.07
2023-05-01T05:42:45.883Z,9.40
2023-05-01T05:45:16.611Z,6.78
2023-05-01T05:47:52.443Z,6.65
2023-05-01T05:50:30.154Z,6.00
2023-05-01T05:53:01.418Z,5.80
2023-05-01T05:55:37.433Z,7.00
2023-05-01T05:58:11.948Z,5.63
2023-05-01T06:00:44.525Z,7.32
2023-05-01T06:06:18.728Z,6.57
2023-05-01T06:08:51.856Z,6.90
2023-05-01T06:11:25.152Z,5.93
2023-05-01T06:13:58.428Z,6.45
2023-05-01T06:16:32.098Z,6.38
2023-05-01T06:19:11.861Z,6.05
2023-05-01T06:22:11.367Z,5.93
2023-05-01T06:24:54.097Z,10.15
2023-05-01T06:27:30.110Z,6.10
2023-05-01T06:30:00.191Z,5.80
2023-05-01T06:32:31.955Z,5.95
2023-05-01T06:35:26.217Z,6.88
2023-05-01T06:38:05.825Z,10.23
2023-05-01T06:40:40.310Z,6.22
2023-05-01T06:43:08.206Z,5.85
2023-05-01T06:45:43.666Z,7.47
2023-05-01T06:48:16.354Z,5.72
2023-05-01T06:50:52.012Z,6.07
2023-05-01T06:53:24.957Z,7.20
2023-05-01T06:55:56.345Z,10.35
2023-05-01T06:58:40.166Z,7.07
2023-05-01T07:01:17.908Z,7.30
2023-05-01T07:03:52.916Z,7.25
2023-05-01T07:06:27.854Z,8.10
2023-05-01T07:09:08.106Z,5.07
2023-05-01T07:11:49.542Z,4.82
2023-05-01T07:14:25.879Z,9.20
2023-05-01T07:16:55.210Z,4.85
2023-05-01T07:19:30.713Z,4.68
2023-05-01T07:22:03.851Z,6.35
2023-05-01T07:24:40.407Z,6.22
2023-05-01T07:27:13.777Z,5.85
2023-05-01T07:29:43.231Z,7.68
2023-05-01T07:32:31.549Z,5.90
2023-05-01T07:35:01.825Z,8.75
2023-05-01T07:37:33.004Z,8.45
2023-05-01T07:40:05.804Z,7.78
2023-05-01T07:42:35.727Z,12.23
2023-05-01T07:45:11.887Z,5.82
2023-05-01T07:47:42.111Z,6.55
2023-05-01T07:50:15.530Z,7.18
2023-05-01T07:53:00.118Z,4.78
2023-05-01T07:55:40.173Z,4.22
2023-05-01T07:58:11.054Z,7.78
2023-05-01T08:00:41.266Z,7.25
2023-05-01T08:03:12.827Z,8.77
2023-05-01T08:05:44.405Z,8.85
2023-05-01T08:08:21.146Z,11.73
2023-05-01T08:10:55.906Z,5.65
2023-05-01T08:13:26.012Z,9.82
2023-05-01T08:16:00.118Z,7.72
2023-05-01T08:18:30.602Z,8.70
2023-05-01T08:24:09.617Z,13.27
2023-05-01T08:26:45.975Z,5.63
2023-05-01T08:29:20.998Z,8.02
2023-05-01T08:32:01.112Z,7.03
2023-05-01T08:39:03.992Z,5.78
2023-05-01T08:41:35.860Z,7.03
2023-05-01T08:44:06.357Z,4.35
2023-05-01T08:46:50.985Z,4.32
2023-05-01T08:49:24.062Z,5.40
2023-05-01T08:52:09.839Z,5.18
2023-05-01T08:54:42.223Z,11.40
2023-05-01T08:57:19.007Z,12.48
2023-05-01T08:59:52.178Z,5.78
2023-05-01T09:02:27.848Z,4.25
2023-05-01T09:05:00.280Z,6.97
2023-05-01T09:07:38.565Z,3.80
2023-05-01T09:10:33.619Z,4.38
2023-05-01T09:13:03.869Z,4.10
2023-05-01T09:15:36.126Z,9.80
2023-05-01T09:18:07.160Z,5.53
2023-05-01T09:20:44.745Z,6.35
2023-05-01T09:23:17.193Z,4.60
2023-05-01T09:25:53.552Z,4.75
2023-05-01T09:28:53.106Z,6.47
2023-05-01T09:31:48.053Z,6.82
2023-05-01T09:34:20.659Z,6.75
2023-05-01T09:41:14.123Z,5.30
2023-05-01T09:46:41.744Z,8.63
2023-05-01T09:49:14.528Z,6.43
2023-05-01T09:51:46.139Z,5.80
2023-05-01T09:54:23.582Z,5.60
2023-05-01T09:56:53.697Z,7.78
2023-05-01T09:59:26.708Z,7.15
2023-05-01T10:02:18.230Z,5.18
2023-05-01T10:04:53.649Z,8.27
2023-05-01T10:07:41.382Z,5.30
2023-05-01T10:10:27.940Z,9.98
2023-05-01T10:17:46.564Z,5.85
2023-05-01T10:30:13.445Z,12.88
2023-05-01T10:32:59.651Z,5.30
2023-05-01T10:35:49.766Z,7.55
2023-05-01T10:38:39.488Z,4.75
2023-05-01T10:41:09.433Z,4.00
2023-05-01T10:43:42.644Z,8.52
2023-05-01T10:51:46.084Z,8.88
2023-05-01T10:55:31.446Z,4.47
2023-05-01T11:03:00.349Z,9.77
2023-05-01T11:10:48.917Z,8.40
2023-05-01T11:13:40.332Z,5.90
2023-05-01T11:21:50.183Z,5.43
2023-05-01T11:24:41.494Z,4.03
2023-05-01T11:27:09.462Z,4.82
2023-05-01T11:30:37.506Z,5.63
2023-05-01T11:33:10.187Z,5.38
2023-05-01T11:35:44.005Z,3.78
2023-05-01T11:38:21.836Z,3.92
2023-05-01T11:41:00.328Z,7.75
2023-05-01T11:43:42.560Z,4.95
2023-05-01T11:46:10.434Z,5.68
2023-05-01T11:48:57.278Z,3.67
2023-05-01T11:51:28.541Z,5.32
2023-05-01T11:54:02.819Z,6.45
2023-05-01T11:56:59.919Z,4.10
2023-05-01T11:59:31.444Z,4.63
2023-05-01T12:02:20.901Z,5.07
2023-05-01T12:04:52.935Z,3.40
2023-05-01T12:07:30.989Z,7.93
2023-05-01T12:10:03.184Z,5.50
2023-05-01T12:12:35.448Z,9.45
2023-05-01T12:15:04.506Z,3.92
2023-05-01T12:17:33.170Z,4.38
2023-05-01T12:20:13.922Z,6.13
2023-05-01T12:23:28.140Z,3.80
2023-05-01T12:25:58.846Z,4.32
2023-05-01T12:28:32.153Z,6.13
2023-05-01T12:31:07.173Z,4.38
2023-05-01T12:33:42.964Z,6.90
2023-05-01T12:36:18.633Z,9.20
2023-05-01T12:42:02.488Z,4.50
2023-05-01T12:44:33.760Z,5.00
2023-05-01T12:47:07.779Z,7.90
2023-05-01T12:49:40.917Z,6.55
2023-05-01T12:52:16.826Z,7.25
2023-05-01T12:54:48.285Z,6.13
2023-05-01T13:02:37.057Z,8.95
2023-05-01T13:05:14.803Z,5.32
2023-05-01T13:07:49.547Z,5.18
2023-05-01T13:17:17.403Z,6.07
2023-05-01T13:20:01.861Z,6.30
2023-05-01T13:23:53.483Z,7.95
2023-05-01T14:08:32.342Z,12.68
2023-05-01T14:56:49.777Z,14.60
2023-05-01T14:59:24.610Z,15.65
2023-05-01T15:02:00.399Z,19.25
2023-05-01T15:04:33.201Z,16.52
2023-05-01T15:07:07.383Z,12.00
2023-05-01T15:09:41.654Z,12.68
2023-05-01T15:12:16.290Z,10.93
2023-05-01T15:14:49.904Z,8.05
2023-05-01T15:17:50.255Z,12.90
2023-05-01T15:20:43.782Z,8.93
2023-05-01T15:26:06.010Z,8.70
2023-05-01T15:28:45.562Z,15.38
2023-05-01T15:31:23.077Z,12.00
2023-05-01T15:34:00.991Z,17.55
2023-05-01T15:36:43.395Z,14.05
2023-05-01T15:39:47.242Z,13.37
2023-05-01T15:48:59.121Z,12.88
2023-05-01T16:06:12.307Z,10.48
2023-05-01T16:08:46.656Z,15.30
2023-05-01T16:11:20.216Z,11.57
2023-05-01T16:14:06.260Z,16.60
2023-05-01T16:16:38.801Z,12.48
2023-05-01T16:19:12.205Z,13.13
2023-05-01T16:21:50.581Z,20.88
2023-05-01T16:24:25.796Z,13.88
2023-05-01T16:27:00.011Z,19.65
2023-05-01T16:34:54.018Z,11.57
2023-05-01T16:38:07.945Z,12.50
2023-05-01T16:43:09.344Z,13.65
2023-05-01T16:45:42.488Z,13.27
2023-05-01T16:48:25.640Z,20.10
2023-05-01T16:51:01.808Z,12.38
2023-05-01T16:53:38.679Z,26.67
2023-05-01T16:56:06.632Z,24.90
2023-05-01T16:58:46.548Z,15.70
2023-05-01T17:02:24.937Z,13.40
2023-05-01T17:04:55.897Z,14.48
2023-05-01T17:07:29.271Z,13.65
2023-05-01T17:09:58.751Z,16.27
2023-05-01T17:12:33.641Z,13.88
2023-05-01T17:15:05.202Z,12.88
2023-05-01T17:17:43.051Z,15.43
2023-05-01T17:20:17.507Z,17.40
2023-05-01T17:22:50.142Z,18.48
2023-05-01T17:25:22.520Z,17.20
2023-05-01T17:27:50.188Z,14.75
2023-05-01T17:30:21.285Z,13.65
2023-05-01T17:32:51.132Z,17.50
2023-05-01T17:35:21.536Z,13.25
2023-05-01T17:37:53.895Z,15.00
2023-05-01T17:40:25.017Z,12.82
2023-05-01T17:42:55.731Z,14.15
2023-05-01T17:45:25.366Z,15.85
2023-05-01T17:47:56.719Z,15.95
2023-05-01T17:50:40.002Z,17.05
2023-05-01T17:53:13.854Z,15.27
2023-05-01T17:55:41.786Z,15.13
2023-05-01T17:58:13.094Z,15.77
2023-05-01T18:00:48.740Z,13.57
2023-05-01T18:03:25.462Z,16.10
2023-05-01T18:05:55.796Z,15.55
2023-05-01T18:08:27.141Z,16.13
2023-05-01T18:10:58.766Z,16.15
2023-05-01T18:13:31.565Z,21.08
2023-05-01T18:16:04.227Z,16.35
2023-05-01T18:18:39.361Z,18.02
2023-05-01T18:21:15.818Z,21.23
2023-05-01T18:23:43.677Z,18.35
2023-05-01T18:26:19.549Z,18.00
2023-05-01T18:28:55.947Z,20.85
2023-05-01T18:31:30.225Z,16.70
2023-05-01T18:34:14.490Z,18.38
2023-05-01T18:36:46.006Z,19.02
2023-05-01T18:41:55.515Z,20.70
2023-05-01T18:44:28.778Z,16.92
2023-05-01T18:46:56.731Z,17.58
2023-05-01T18:49:51.907Z,18.65
2023-05-01T18:52:29.197Z,17.67
2023-05-01T18:54:59.284Z,17.77
2023-05-01T18:57:30.143Z,17.25
2023-05-01T19:00:06.679Z,15.75
2023-05-01T19:02:35.213Z,14.73
2023-05-01T19:05:11.046Z,15.35
2023-05-01T19:07:44.495Z,16.67
2023-05-01T19:10:21.155Z,17.65
2023-05-01T19:13:15.417Z,16.63
2023-05-01T19:15:56.191Z,17.40
2023-05-01T19:18:32.765Z,17.17
2023-05-01T19:21:08.022Z,15.20
2023-05-01T19:23:37.568Z,14.90
2023-05-01T19:26:10.937Z,19.85
2023-05-01T19:28:45.019Z,25.45
2023-05-01T19:31:14.897Z,17.20
2023-05-01T19:33:46.924Z,18.77
2023-05-01T19:36:18.033Z,18.02
2023-05-01T19:38:48.863Z,16.73
2023-05-01T19:41:19.608Z,18.25
2023-05-01T19:44:01.234Z,17.27
2023-05-01T19:46:34.759Z,16.33
2023-05-01T19:49:10.501Z,15.18
2023-05-01T19:51:49.088Z,18.90
2023-05-01T19:54:19.580Z,16.25
2023-05-01T19:56:52.655Z,16.38
2023-05-01T19:59:24.256Z,17.63
2023-05-01T20:01:55.288Z,18.23
2023-05-01T20:04:28.628Z,18.17
2023-05-01T20:07:01.025Z,83.32
2023-05-01T20:09:53.746Z,18.65
2023-05-01T20:12:29.610Z,17.08
2023-05-01T20:15:00.679Z,19.08
2023-05-01T20:17:31.585Z,17.58
2023-05-01T20:20:01.573Z,18.10
2023-05-01T20:22:31.582Z,19.17
2023-05-01T20:25:08.811Z,16.75
2023-05-01T20:27:36.757Z,14.93
2023-05-01T20:30:13.994Z,17.40
2023-05-01T20:32:51.961Z,19.40
2023-05-01T20:35:31.824Z,15.40
2023-05-01T20:38:05.672Z,16.98
2023-05-01T20:40:40.500Z,16.52
2023-05-01T20:43:30.024Z,15.40
2023-05-01T20:46:19.610Z,16.45
2023-05-01T20:48:54.496Z,15.73
2023-05-01T20:51:22.265Z,15.70
2023-05-01T20:53:49.804Z,16.10
2023-05-01T20:59:09.888Z,21.40
2023-05-01T21:01:42.366Z,19.27
2023-05-01T21:04:12.724Z,17.05
2023-05-01T21:06:45.704Z,16.50
2023-05-01T21:09:19.891Z,15.50
2023-05-01T21:11:50.063Z,15.32
2023-05-01T21:14:22.430Z,15.73
2023-05-01T21:17:02.770Z,16.10
2023-05-01T21:19:30.316Z,17.95
2023-05-01T21:22:01.664Z,14.98
2023-05-01T21:24:30.390Z,14.70
2023-05-01T21:27:00.599Z,13.55
2023-05-01T21:29:28.494Z,12.32
2023-05-01T21:31:55.730Z,13.48
2023-05-01T21:34:30.787Z,12.60
2023-05-01T21:37:00.790Z,13.55
2023-05-01T21:39:46.983Z,12.60
2023-05-01T21:42:22.446Z,12.48
2023-05-01T21:44:58.303Z,13.38
2023-05-01T21:47:33.834Z,13.52
2023-05-01T21:50:06.882Z,15.35
2023-05-01T21:52:35.130Z,15.27
2023-05-01T21:55:11.045Z,16.45
2023-05-01T21:57:46.585Z,15.63
2023-05-01T22:00:18.870Z,16.73
2023-05-01T22:02:52.158Z,15.07
2023-05-01T22:05:24.601Z,16.20
2023-05-01T22:08:06.246Z,16.02
2023-05-01T22:10:35.690Z,17.45
2023-05-01T22:13:06.907Z,16.48
2023-05-01T22:15:39.669Z,17.00
2023-05-01T22:18:10.360Z,17.17
2023-05-01T22:20:38.390Z,17.02
2023-05-01T22:23:09.034Z,17.60
2023-05-01T22:25:44.878Z,18.40
2023-05-01T22:28:17.589Z,20.35
2023-05-01T22:30:54.179Z,17.70
2023-05-01T22:33:32.014Z,17.60
2023-05-01T22:36:07.350Z,18.02
2023-05-01T22:38:42.874Z,19.25
2023-05-01T22:41:15.018Z,18.15
2023-05-01T22:43:44.048Z,16.73
2023-05-01T22:46:28.163Z,17.02
2023-05-01T22:51:31.070Z,19.50
2023-05-01T22:54:03.884Z,17.40
2023-05-01T22:56:34.020Z,16.92
2023-05-01T22:59:01.380Z,18.10
2023-05-01T23:01:34.004Z,17.55
2023-05-01T23:04:04.262Z,18.27
2023-05-01T23:06:32.914Z,19.05
2023-05-01T23:09:06.501Z,19.25
2023-05-01T23:11:39.400Z,18.60
2023-05-01T23:14:09.235Z,18.50
2023-05-01T23:16:41.756Z,17.98
2023-05-01T23:19:24.833Z,17.73
2023-05-01T23:22:20.792Z,18.75
2023-05-01T23:24:55.714Z,17.20
2023-05-01T23:27:28.782Z,18.45
2023-05-01T23:30:01.445Z,17.88
2023-05-01T23:32:33.040Z,18.50
2023-05-01T23:35:18.153Z,18.58
2023-05-01T23:37:50.320Z,19.58
2023-05-01T23:40:20.778Z,22.52
2023-05-01T23:42:51.156Z,19.15
2023-05-01T23:45:56.655Z,17.95
2023-05-01T23:48:26.423Z,17.08
2023-05-01T23:50:59.041Z,15.52
2023-05-01T23:53:26.918Z,14.80
2023-05-01T23:55:57.434Z,16.40
2023-05-01T23:58:30.668Z,14.85
